sensor_id;sensor_type;location;lat;lon;timestamp;P1;durP1;ratioP1;P2;durP2;ratioP2
66761;SDS011;53672;48.176;16.338;2024-03-07T00:04:50;18.55;;;8.40;;
66761;SDS011;53672;48.176;16.338;2024-03-07T00:09:52;19.43;;;9.43;;
66761;SDS011;53672;48.176;16.338;2024-03-07T00:14:56;21.70;;;9.88;;
66761;SDS011;53672;48.176;16.338;2024-03-07T00:19:58;23.23;;;9.85;;
66761;SDS011;53672;48.176;16.338;2024-03-07T00:25:00;21.60;;;9.50;;
66761;SDS011;53672;48.176;16.338;2024-03-07T00:30:05;22.83;;;10.15;;
66761;SDS011;53672;48.176;16.338;2024-03-07T00:35:10;24.23;;;10.67;;
66761;SDS011;53672;48.176;16.338;2024-03-07T00:40:12;23.13;;;10.70;;
66761;SDS011;53672;48.176;16.338;2024-03-07T00:45:13;20.48;;;9.95;;
66761;SDS011;53672;48.176;16.338;2024-03-07T00:50:16;19.20;;;9.07;;
66761;SDS011;53672;48.176;16.338;2024-03-07T00:55:18;20.75;;;9.93;;
66761;SDS011;53672;48.176;16.338;2024-03-07T01:00:20;20.93;;;9.47;;
66761;SDS011;53672;48.176;16.338;2024-03-07T01:05:23;17.65;;;8.82;;
66761;SDS011;53672;48.176;16.338;2024-03-07T01:10:24;18.05;;;8.38;;
66761;SDS011;53672;48.176;16.338;2024-03-07T01:15:26;18.87;;;8.67;;
66761;SDS011;53672;48.176;16.338;2024-03-07T01:20:29;19.83;;;8.25;;
66761;SDS011;53672;48.176;16.338;2024-03-07T01:25:30;18.10;;;8.83;;
66761;SDS011;53672;48.176;16.338;2024-03-07T01:30:34;17.98;;;7.95;;
66761;SDS011;53672;48.176;16.338;2024-03-07T01:35:36;17.92;;;8.05;;
66761;SDS011;53672;48.176;16.338;2024-03-07T01:40:39;17.30;;;8.03;;
66761;SDS011;53672;48.176;16.338;2024-03-07T01:45:40;17.48;;;8.60;;
66761;SDS011;53672;48.176;16.338;2024-03-07T01:50:43;21.20;;;9.47;;
66761;SDS011;53672;48.176;16.338;2024-03-07T01:55:45;19.17;;;9.23;;
66761;SDS011;53672;48.176;16.338;2024-03-07T02:00:47;21.27;;;9.13;;
66761;SDS011;53672;48.176;16.338;2024-03-07T02:05:50;20.73;;;9.43;;
66761;SDS011;53672;48.176;16.338;2024-03-07T02:10:52;21.17;;;9.43;;
66761;SDS011;53672;48.176;16.338;2024-03-07T02:15:53;20.63;;;9.77;;
66761;SDS011;53672;48.176;16.338;2024-03-07T02:20:56;23.10;;;10.23;;
66761;SDS011;53672;48.176;16.338;2024-03-07T02:25:58;26.45;;;11.38;;
66761;SDS011;53672;48.176;16.338;2024-03-07T02:31:00;24.63;;;10.87;;
66761;SDS011;53672;48.176;16.338;2024-03-07T02:36:03;24.83;;;10.80;;
66761;SDS011;53672;48.176;16.338;2024-03-07T02:41:05;27.53;;;10.40;;
66761;SDS011;53672;48.176;16.338;2024-03-07T02:46:07;25.58;;;11.05;;
66761;SDS011;53672;48.176;16.338;2024-03-07T02:51:10;25.27;;;10.00;;
66761;SDS011;53672;48.176;16.338;2024-03-07T02:56:12;25.63;;;10.63;;
66761;SDS011;53672;48.176;16.338;2024-03-07T03:01:14;26.55;;;10.82;;
66761;SDS011;53672;48.176;16.338;2024-03-07T03:06:17;23.50;;;9.63;;
66761;SDS011;53672;48.176;16.338;2024-03-07T03:11:20;24.00;;;9.63;;
66761;SDS011;53672;48.176;16.338;2024-03-07T03:16:22;22.60;;;9.48;;
66761;SDS011;53672;48.176;16.338;2024-03-07T03:21:26;20.03;;;8.40;;
66761;SDS011;53672;48.176;16.338;2024-03-07T03:26:27;21.92;;;8.77;;
66761;SDS011;53672;48.176;16.338;2024-03-07T03:31:31;19.60;;;8.30;;
66761;SDS011;53672;48.176;16.338;2024-03-07T03:36:34;21.85;;;8.68;;
66761;SDS011;53672;48.176;16.338;2024-03-07T03:41:36;18.33;;;7.72;;
66761;SDS011;53672;48.176;16.338;2024-03-07T03:46:38;20.37;;;8.50;;
66761;SDS011;53672;48.176;16.338;2024-03-07T03:51:41;19.60;;;7.82;;
66761;SDS011;53672;48.176;16.338;2024-03-07T03:56:42;18.00;;;7.60;;
66761;SDS011;53672;48.176;16.338;2024-03-07T04:01:44;17.48;;;6.82;;
66761;SDS011;53672;48.176;16.338;2024-03-07T04:06:47;18.20;;;7.68;;
66761;SDS011;53672;48.176;16.338;2024-03-07T04:11:48;16.73;;;6.70;;
66761;SDS011;53672;48.176;16.338;2024-03-07T04:16:50;16.45;;;6.78;;
66761;SDS011;53672;48.176;16.338;2024-03-07T04:21:53;17.40;;;7.00;;
66761;SDS011;53672;48.176;16.338;2024-03-07T04:26:55;14.95;;;6.93;;
66761;SDS011;53672;48.176;16.338;2024-03-07T04:31:56;16.98;;;6.88;;
66761;SDS011;53672;48.176;16.338;2024-03-07T04:36:59;17.17;;;7.50;;
66761;SDS011;53672;48.176;16.338;2024-03-07T04:42:02;16.45;;;6.72;;
66761;SDS011;53672;48.176;16.338;2024-03-07T04:47:04;18.30;;;6.90;;
66761;SDS011;53672;48.176;16.338;2024-03-07T04:52:07;15.77;;;6.63;;
66761;SDS011;53672;48.176;16.338;2024-03-07T04:57:09;20.58;;;8.30;;
66761;SDS011;53672;48.176;16.338;2024-03-07T05:02:11;17.37;;;7.03;;
66761;SDS011;53672;48.176;16.338;2024-03-07T05:07:14;14.45;;;6.68;;
66761;SDS011;53672;48.176;16.338;2024-03-07T05:12:16;16.70;;;7.33;;
66761;SDS011;53672;48.176;16.338;2024-03-07T05:17:17;15.32;;;6.60;;
66761;SDS011;53672;48.176;16.338;2024-03-07T05:22:21;18.98;;;7.53;;
66761;SDS011;53672;48.176;16.338;2024-03-07T05:27:25;15.40;;;6.70;;
66761;SDS011;53672;48.176;16.338;2024-03-07T05:32:27;19.70;;;7.70;;
66761;SDS011;53672;48.176;16.338;2024-03-07T05:37:30;17.30;;;7.93;;
66761;SDS011;53672;48.176;16.338;2024-03-07T05:42:33;18.45;;;7.65;;
66761;SDS011;53672;48.176;16.338;2024-03-07T05:47:34;16.92;;;7.18;;
66761;SDS011;53672;48.176;16.338;2024-03-07T05:52:37;16.70;;;7.77;;
66761;SDS011;53672;48.176;16.338;2024-03-07T05:57:39;15.93;;;7.47;;
66761;SDS011;53672;48.176;16.338;2024-03-07T06:02:40;18.60;;;7.87;;
66761;SDS011;53672;48.176;16.338;2024-03-07T06:07:43;17.38;;;7.15;;
66761;SDS011;53672;48.176;16.338;2024-03-07T06:12:46;18.38;;;7.47;;
66761;SDS011;53672;48.176;16.338;2024-03-07T06:17:48;18.13;;;7.03;;
66761;SDS011;53672;48.176;16.338;2024-03-07T06:22:51;16.75;;;6.82;;
66761;SDS011;53672;48.176;16.338;2024-03-07T06:27:53;14.67;;;6.47;;
66761;SDS011;53672;48.176;16.338;2024-03-07T06:32:56;15.50;;;6.68;;
66761;SDS011;53672;48.176;16.338;2024-03-07T06:37:59;17.38;;;6.70;;
66761;SDS011;53672;48.176;16.338;2024-03-07T06:43:01;15.37;;;7.00;;
66761;SDS011;53672;48.176;16.338;2024-03-07T06:48:04;19.33;;;7.10;;
66761;SDS011;53672;48.176;16.338;2024-03-07T06:53:09;17.77;;;7.17;;
66761;SDS011;53672;48.176;16.338;2024-03-07T06:58:10;18.35;;;7.55;;
66761;SDS011;53672;48.176;16.338;2024-03-07T07:03:12;15.18;;;7.00;;
66761;SDS011;53672;48.176;16.338;2024-03-07T07:08:15;17.73;;;7.60;;
66761;SDS011;53672;48.176;16.338;2024-03-07T07:13:17;15.00;;;6.65;;
66761;SDS011;53672;48.176;16.338;2024-03-07T07:18:19;19.03;;;6.93;;
66761;SDS011;53672;48.176;16.338;2024-03-07T07:23:23;14.73;;;6.32;;
66761;SDS011;53672;48.176;16.338;2024-03-07T07:28:24;14.57;;;7.00;;
66761;SDS011;53672;48.176;16.338;2024-03-07T07:33:26;15.30;;;7.43;;
66761;SDS011;53672;48.176;16.338;2024-03-07T07:38:29;14.88;;;6.97;;
66761;SDS011;53672;48.176;16.338;2024-03-07T07:43:31;16.70;;;7.77;;
66761;SDS011;53672;48.176;16.338;2024-03-07T07:48:33;13.98;;;6.43;;
66761;SDS011;53672;48.176;16.338;2024-03-07T07:53:36;16.88;;;7.25;;
66761;SDS011;53672;48.176;16.338;2024-03-07T07:58:37;15.17;;;6.80;;
66761;SDS011;53672;48.176;16.338;2024-03-07T08:03:40;15.45;;;7.40;;
66761;SDS011;53672;48.176;16.338;2024-03-07T08:08:43;14.67;;;7.10;;
66761;SDS011;53672;48.176;16.338;2024-03-07T08:13:45;15.20;;;7.22;;
66761;SDS011;53672;48.176;16.338;2024-03-07T08:18:50;13.90;;;6.63;;
66761;SDS011;53672;48.176;16.338;2024-03-07T08:23:54;13.83;;;6.77;;
66761;SDS011;53672;48.176;16.338;2024-03-07T08:28:55;13.65;;;6.50;;
66761;SDS011;53672;48.176;16.338;2024-03-07T08:33:57;14.10;;;6.80;;
66761;SDS011;53672;48.176;16.338;2024-03-07T08:39:01;15.20;;;7.07;;
66761;SDS011;53672;48.176;16.338;2024-03-07T08:44:03;14.25;;;6.85;;
66761;SDS011;53672;48.176;16.338;2024-03-07T08:49:05;13.63;;;6.20;;
66761;SDS011;53672;48.176;16.338;2024-03-07T08:54:08;14.60;;;6.50;;
66761;SDS011;53672;48.176;16.338;2024-03-07T08:59:09;13.67;;;6.43;;
66761;SDS011;53672;48.176;16.338;2024-03-07T09:04:15;15.25;;;7.07;;
66761;SDS011;53672;48.176;16.338;2024-03-07T09:09:19;13.15;;;6.35;;
66761;SDS011;53672;48.176;16.338;2024-03-07T09:14:20;15.50;;;7.03;;
66761;SDS011;53672;48.176;16.338;2024-03-07T09:19:23;15.77;;;7.43;;
66761;SDS011;53672;48.176;16.338;2024-03-07T09:24:26;15.80;;;7.47;;
66761;SDS011;53672;48.176;16.338;2024-03-07T09:29:28;13.35;;;6.50;;
66761;SDS011;53672;48.176;16.338;2024-03-07T09:34:30;14.55;;;6.90;;
66761;SDS011;53672;48.176;16.338;2024-03-07T09:39:33;13.87;;;6.67;;
66761;SDS011;53672;48.176;16.338;2024-03-07T09:44:36;12.38;;;6.28;;
66761;SDS011;53672;48.176;16.338;2024-03-07T09:49:40;13.43;;;6.70;;
66761;SDS011;53672;48.176;16.338;2024-03-07T09:54:43;13.40;;;7.65;;
66761;SDS011;53672;48.176;16.338;2024-03-07T09:59:45;13.55;;;7.53;;
66761;SDS011;53672;48.176;16.338;2024-03-07T10:04:50;13.53;;;7.33;;
66761;SDS011;53672;48.176;16.338;2024-03-07T10:09:56;14.60;;;7.80;;
66761;SDS011;53672;48.176;16.338;2024-03-07T10:15:02;14.80;;;8.00;;
66761;SDS011;53672;48.176;16.338;2024-03-07T10:20:05;14.05;;;8.05;;
66761;SDS011;53672;48.176;16.338;2024-03-07T10:25:11;16.35;;;8.43;;
66761;SDS011;53672;48.176;16.338;2024-03-07T10:30:12;16.63;;;8.60;;
66761;SDS011;53672;48.176;16.338;2024-03-07T10:35:20;17.60;;;9.05;;
66761;SDS011;53672;48.176;16.338;2024-03-07T10:40:25;17.93;;;8.80;;
66761;SDS011;53672;48.176;16.338;2024-03-07T10:45:27;17.08;;;8.50;;
66761;SDS011;53672;48.176;16.338;2024-03-07T10:50:33;15.85;;;8.68;;
66761;SDS011;53672;48.176;16.338;2024-03-07T10:55:47;15.67;;;8.33;;
66761;SDS011;53672;48.176;16.338;2024-03-07T11:00:55;17.20;;;9.45;;
66761;SDS011;53672;48.176;16.338;2024-03-07T11:05:59;16.43;;;9.33;;
66761;SDS011;53672;48.176;16.338;2024-03-07T11:11:07;18.02;;;10.35;;
66761;SDS011;53672;48.176;16.338;2024-03-07T11:16:08;17.70;;;9.45;;
66761;SDS011;53672;48.176;16.338;2024-03-07T11:26:44;20.48;;;9.93;;
66761;SDS011;53672;48.176;16.338;2024-03-07T11:31:48;23.97;;;9.80;;
66761;SDS011;53672;48.176;16.338;2024-03-07T11:36:54;22.23;;;10.05;;
66761;SDS011;53672;48.176;16.338;2024-03-07T11:42:01;22.23;;;10.38;;
66761;SDS011;53672;48.176;16.338;2024-03-07T11:47:06;21.53;;;10.07;;
66761;SDS011;53672;48.176;16.338;2024-03-07T11:52:09;21.58;;;9.95;;
66761;SDS011;53672;48.176;16.338;2024-03-07T11:57:16;23.57;;;10.50;;
66761;SDS011;53672;48.176;16.338;2024-03-07T12:02:19;24.00;;;10.48;;
66761;SDS011;53672;48.176;16.338;2024-03-07T12:07:22;25.40;;;11.18;;
66761;SDS011;53672;48.176;16.338;2024-03-07T12:12:25;24.33;;;11.37;;
66761;SDS011;53672;48.176;16.338;2024-03-07T12:17:28;23.67;;;11.38;;
66761;SDS011;53672;48.176;16.338;2024-03-07T12:22:31;26.53;;;11.57;;
66761;SDS011;53672;48.176;16.338;2024-03-07T12:27:34;24.25;;;10.55;;
66761;SDS011;53672;48.176;16.338;2024-03-07T12:32:42;27.20;;;11.68;;
66761;SDS011;53672;48.176;16.338;2024-03-07T12:37:48;26.03;;;11.67;;
66761;SDS011;53672;48.176;16.338;2024-03-07T12:42:52;26.52;;;11.73;;
66761;SDS011;53672;48.176;16.338;2024-03-07T12:47:56;27.77;;;12.17;;
66761;SDS011;53672;48.176;16.338;2024-03-07T12:53:04;26.42;;;12.02;;
66761;SDS011;53672;48.176;16.338;2024-03-07T12:58:07;27.08;;;11.73;;
66761;SDS011;53672;48.176;16.338;2024-03-07T13:03:09;27.73;;;11.73;;
66761;SDS011;53672;48.176;16.338;2024-03-07T13:08:14;24.60;;;11.85;;
66761;SDS011;53672;48.176;16.338;2024-03-07T13:13:17;26.03;;;11.87;;
66761;SDS011;53672;48.176;16.338;2024-03-07T13:18:20;23.88;;;10.65;;
66761;SDS011;53672;48.176;16.338;2024-03-07T13:23:22;27.10;;;12.23;;
66761;SDS011;53672;48.176;16.338;2024-03-07T13:28:29;29.40;;;11.83;;
66761;SDS011;53672;48.176;16.338;2024-03-07T13:33:34;25.90;;;11.98;;
66761;SDS011;53672;48.176;16.338;2024-03-07T13:38:37;22.87;;;10.20;;
66761;SDS011;53672;48.176;16.338;2024-03-07T13:43:40;24.65;;;11.40;;
66761;SDS011;53672;48.176;16.338;2024-03-07T13:48:41;25.73;;;11.38;;
66761;SDS011;53672;48.176;16.338;2024-03-07T13:53:43;26.23;;;12.07;;
66761;SDS011;53672;48.176;16.338;2024-03-07T13:59:18;27.00;;;12.43;;
66761;SDS011;53672;48.176;16.338;2024-03-07T14:04:45;27.13;;;11.63;;
66761;SDS011;53672;48.176;16.338;2024-03-07T14:10:27;25.50;;;11.68;;
66761;SDS011;53672;48.176;16.338;2024-03-07T14:15:55;26.17;;;11.20;;
66761;SDS011;53672;48.176;16.338;2024-03-07T14:21:23;27.30;;;12.00;;
66761;SDS011;53672;48.176;16.338;2024-03-07T14:26:53;27.00;;;11.52;;
66761;SDS011;53672;48.176;16.338;2024-03-07T14:32:13;29.43;;;12.60;;
66761;SDS011;53672;48.176;16.338;2024-03-07T14:37:20;25.98;;;11.98;;
66761;SDS011;53672;48.176;16.338;2024-03-07T14:42:25;24.48;;;11.35;;
66761;SDS011;53672;48.176;16.338;2024-03-07T14:47:27;26.03;;;11.73;;
66761;SDS011;53672;48.176;16.338;2024-03-07T14:52:29;26.30;;;11.98;;
66761;SDS011;53672;48.176;16.338;2024-03-07T14:57:31;26.83;;;11.77;;
66761;SDS011;53672;48.176;16.338;2024-03-07T15:02:34;24.98;;;11.43;;
66761;SDS011;53672;48.176;16.338;2024-03-07T15:07:37;27.80;;;12.00;;
66761;SDS011;53672;48.176;16.338;2024-03-07T15:12:39;27.87;;;11.87;;
66761;SDS011;53672;48.176;16.338;2024-03-07T15:17:42;25.80;;;11.60;;
66761;SDS011;53672;48.176;16.338;2024-03-07T15:22:45;26.33;;;11.83;;
66761;SDS011;53672;48.176;16.338;2024-03-07T15:27:46;29.40;;;12.52;;
66761;SDS011;53672;48.176;16.338;2024-03-07T15:32:51;29.85;;;12.40;;
66761;SDS011;53672;48.176;16.338;2024-03-07T15:37:53;29.27;;;12.40;;
66761;SDS011;53672;48.176;16.338;2024-03-07T15:42:55;31.45;;;12.68;;
66761;SDS011;53672;48.176;16.338;2024-03-07T15:47:59;28.77;;;12.60;;
66761;SDS011;53672;48.176;16.338;2024-03-07T15:53:04;29.27;;;12.32;;
66761;SDS011;53672;48.176;16.338;2024-03-07T15:58:06;31.23;;;13.55;;
66761;SDS011;53672;48.176;16.338;2024-03-07T16:03:09;34.03;;;13.83;;
66761;SDS011;53672;48.176;16.338;2024-03-07T16:08:13;33.85;;;13.98;;
66761;SDS011;53672;48.176;16.338;2024-03-07T16:13:16;35.27;;;14.83;;
66761;SDS011;53672;48.176;16.338;2024-03-07T16:18:19;34.53;;;14.85;;
66761;SDS011;53672;48.176;16.338;2024-03-07T16:23:23;39.42;;;14.48;;
66761;SDS011;53672;48.176;16.338;2024-03-07T16:28:25;36.90;;;15.43;;
66761;SDS011;53672;48.176;16.338;2024-03-07T16:33:30;39.75;;;15.27;;
66761;SDS011;53672;48.176;16.338;2024-03-07T16:38:32;45.27;;;17.17;;
66761;SDS011;53672;48.176;16.338;2024-03-07T16:43:34;39.97;;;16.17;;
66761;SDS011;53672;48.176;16.338;2024-03-07T16:48:38;42.00;;;16.98;;
66761;SDS011;53672;48.176;16.338;2024-03-07T16:53:40;38.70;;;16.63;;
66761;SDS011;53672;48.176;16.338;2024-03-07T16:58:42;47.38;;;17.10;;
66761;SDS011;53672;48.176;16.338;2024-03-07T17:03:45;44.57;;;17.77;;
66761;SDS011;53672;48.176;16.338;2024-03-07T17:08:47;41.13;;;17.58;;
66761;SDS011;53672;48.176;16.338;2024-03-07T17:13:49;44.03;;;17.25;;
66761;SDS011;53672;48.176;16.338;2024-03-07T17:18:52;44.43;;;17.30;;
66761;SDS011;53672;48.176;16.338;2024-03-07T17:23:53;44.58;;;16.98;;
66761;SDS011;53672;48.176;16.338;2024-03-07T17:28:56;40.97;;;16.30;;
66761;SDS011;53672;48.176;16.338;2024-03-07T17:33:59;42.10;;;16.73;;
66761;SDS011;53672;48.176;16.338;2024-03-07T17:39:01;44.05;;;17.80;;
66761;SDS011;53672;48.176;16.338;2024-03-07T17:44:03;46.10;;;16.27;;
66761;SDS011;53672;48.176;16.338;2024-03-07T17:49:12;48.67;;;18.30;;
66761;SDS011;53672;48.176;16.338;2024-03-07T17:54:14;45.57;;;17.83;;
66761;SDS011;53672;48.176;16.338;2024-03-07T17:59:15;44.33;;;17.75;;
66761;SDS011;53672;48.176;16.338;2024-03-07T18:04:22;47.45;;;17.88;;
66761;SDS011;53672;48.176;16.338;2024-03-07T18:09:26;48.60;;;18.13;;
66761;SDS011;53672;48.176;16.338;2024-03-07T18:14:28;48.40;;;17.75;;
66761;SDS011;53672;48.176;16.338;2024-03-07T18:19:34;51.57;;;18.50;;
66761;SDS011;53672;48.176;16.338;2024-03-07T18:24:36;50.13;;;18.25;;
66761;SDS011;53672;48.176;16.338;2024-03-07T18:29:38;49.05;;;18.60;;
66761;SDS011;53672;48.176;16.338;2024-03-07T18:34:41;52.97;;;19.57;;
66761;SDS011;53672;48.176;16.338;2024-03-07T18:39:43;53.78;;;18.92;;
66761;SDS011;53672;48.176;16.338;2024-03-07T18:44:46;53.80;;;19.60;;
66761;SDS011;53672;48.176;16.338;2024-03-07T18:49:51;50.45;;;20.15;;
66761;SDS011;53672;48.176;16.338;2024-03-07T18:54:54;50.92;;;19.38;;
66761;SDS011;53672;48.176;16.338;2024-03-07T18:59:56;52.57;;;19.97;;
66761;SDS011;53672;48.176;16.338;2024-03-07T19:04:59;51.13;;;19.80;;
66761;SDS011;53672;48.176;16.338;2024-03-07T19:10:07;49.70;;;18.90;;
66761;SDS011;53672;48.176;16.338;2024-03-07T19:15:18;57.63;;;20.48;;
66761;SDS011;53672;48.176;16.338;2024-03-07T19:20:22;52.42;;;19.65;;
66761;SDS011;53672;48.176;16.338;2024-03-07T19:25:24;54.50;;;19.63;;
66761;SDS011;53672;48.176;16.338;2024-03-07T19:30:25;55.58;;;20.63;;
66761;SDS011;53672;48.176;16.338;2024-03-07T19:35:29;55.20;;;21.13;;
66761;SDS011;53672;48.176;16.338;2024-03-07T19:40:33;55.30;;;20.63;;
66761;SDS011;53672;48.176;16.338;2024-03-07T19:45:38;57.28;;;20.17;;
66761;SDS011;53672;48.176;16.338;2024-03-07T19:50:42;55.43;;;20.77;;
66761;SDS011;53672;48.176;16.338;2024-03-07T19:55:45;55.38;;;20.08;;
66761;SDS011;53672;48.176;16.338;2024-03-07T20:00:48;58.57;;;21.57;;
66761;SDS011;53672;48.176;16.338;2024-03-07T20:05:51;54.15;;;20.48;;
66761;SDS011;53672;48.176;16.338;2024-03-07T20:10:53;49.60;;;19.30;;
66761;SDS011;53672;48.176;16.338;2024-03-07T20:15:55;55.67;;;19.43;;
66761;SDS011;53672;48.176;16.338;2024-03-07T20:20:58;49.90;;;19.83;;
66761;SDS011;53672;48.176;16.338;2024-03-07T20:26:02;57.17;;;20.67;;
66761;SDS011;53672;48.176;16.338;2024-03-07T20:31:04;56.75;;;21.02;;
66761;SDS011;53672;48.176;16.338;2024-03-07T20:36:09;58.75;;;21.20;;
66761;SDS011;53672;48.176;16.338;2024-03-07T20:41:11;51.07;;;18.27;;
66761;SDS011;53672;48.176;16.338;2024-03-07T20:46:13;58.05;;;20.10;;
66761;SDS011;53672;48.176;16.338;2024-03-07T20:51:16;46.50;;;18.27;;
66761;SDS011;53672;48.176;16.338;2024-03-07T20:56:18;50.65;;;19.20;;
66761;SDS011;53672;48.176;16.338;2024-03-07T21:01:20;54.58;;;18.65;;
66761;SDS011;53672;48.176;16.338;2024-03-07T21:06:25;54.03;;;19.83;;
66761;SDS011;53672;48.176;16.338;2024-03-07T21:11:27;48.45;;;18.83;;
66761;SDS011;53672;48.176;16.338;2024-03-07T21:16:29;53.20;;;19.10;;
66761;SDS011;53672;48.176;16.338;2024-03-07T21:21:32;51.58;;;20.10;;
66761;SDS011;53672;48.176;16.338;2024-03-07T21:26:36;50.13;;;19.63;;
66761;SDS011;53672;48.176;16.338;2024-03-07T21:31:38;54.63;;;19.30;;
66761;SDS011;53672;48.176;16.338;2024-03-07T21:36:43;53.65;;;19.30;;
66761;SDS011;53672;48.176;16.338;2024-03-07T21:41:45;55.07;;;20.17;;
66761;SDS011;53672;48.176;16.338;2024-03-07T21:46:46;52.58;;;19.88;;
66761;SDS011;53672;48.176;16.338;2024-03-07T21:51:49;49.30;;;18.55;;
66761;SDS011;53672;48.176;16.338;2024-03-07T21:56:51;57.40;;;20.30;;
66761;SDS011;53672;48.176;16.338;2024-03-07T22:01:52;52.03;;;19.20;;
66761;SDS011;53672;48.176;16.338;2024-03-07T22:06:55;51.00;;;19.63;;
66761;SDS011;53672;48.176;16.338;2024-03-07T22:11:57;52.38;;;18.90;;
66761;SDS011;53672;48.176;16.338;2024-03-07T22:16:59;55.00;;;19.05;;
66761;SDS011;53672;48.176;16.338;2024-03-07T22:22:06;53.87;;;18.90;;
66761;SDS011;53672;48.176;16.338;2024-03-07T22:27:07;57.28;;;19.65;;
66761;SDS011;53672;48.176;16.338;2024-03-07T22:32:10;53.63;;;19.93;;
66761;SDS011;53672;48.176;16.338;2024-03-07T22:37:13;50.25;;;18.15;;
66761;SDS011;53672;48.176;16.338;2024-03-07T22:42:16;56.47;;;19.63;;
66761;SDS011;53672;48.176;16.338;2024-03-07T22:47:17;51.23;;;18.53;;
66761;SDS011;53672;48.176;16.338;2024-03-07T22:52:23;58.47;;;20.73;;
66761;SDS011;53672;48.176;16.338;2024-03-07T22:57:25;50.33;;;19.13;;
66761;SDS011;53672;48.176;16.338;2024-03-07T23:02:26;49.42;;;18.40;;
66761;SDS011;53672;48.176;16.338;2024-03-07T23:07:29;54.67;;;18.95;;
66761;SDS011;53672;48.176;16.338;2024-03-07T23:12:32;55.70;;;19.57;;
66761;SDS011;53672;48.176;16.338;2024-03-07T23:17:33;55.22;;;18.60;;
66761;SDS011;53672;48.176;16.338;2024-03-07T23:22:39;55.47;;;19.67;;
66761;SDS011;53672;48.176;16.338;2024-03-07T23:27:41;54.60;;;19.48;;
66761;SDS011;53672;48.176;16.338;2024-03-07T23:32:43;51.67;;;18.38;;
66761;SDS011;53672;48.176;16.338;2024-03-07T23:37:46;52.57;;;18.53;;
66761;SDS011;53672;48.176;16.338;2024-03-07T23:42:50;47.50;;;17.58;;
66761;SDS011;53672;48.176;16.338;2024-03-07T23:47:53;50.53;;;17.40;;
66761;SDS011;53672;48.176;16.338;2024-03-07T23:52:59;50.47;;;18.38;;
66761;SDS011;53672;48.176;16.338;2024-03-07T23:58:01;50.72;;;18.20;;
